Time;durP1;ratioP1;P1;durP2;ratioP2;P2;SDS_P1;SDS_P2;PMS_P1;PMS_P2;Temp;Humidity;BMP_temperature;BMP_pressure;BME280_temperature;BME280_humidity;BME280_pressure;Samples;Min_cycle;Max_cycle;Signal;HPM_P1;HPM_P2
2021/09/02 00:01:40;;;;;;;13.27;7.25;;;14.50;99.90;;;;;;12512642;28;20053;-37
2021/09/02 00:07:42;;;;;;;14.40;6.63;;;14.30;99.90;;;;;;12516575;28;20053;-36
2021/09/02 00:13:44;;;;;;;17.40;6.90;;;14.30;99.90;;;;;;12515780;28;20544;-36
2021/09/02 00:19:46;;;;;;;10.60;6.53;;;14.30;99.90;;;;;;12503499;28;20056;-37
2021/09/02 00:25:48;;;;;;;11.05;6.95;;;14.20;99.90;;;;;;12514095;28;20092;-36
2021/09/02 00:31:50;;;;;;;13.68;6.90;;;14.20;99.90;;;;;;12516755;28;20076;-36
2021/09/02 00:37:52;;;;;;;12.70;6.80;;;14.10;99.90;;;;;;12515581;28;20099;-36
2021/09/02 00:43:54;;;;;;;15.30;6.90;;;14.10;99.90;;;;;;12514277;28;20569;-36
2021/09/02 00:49:56;;;;;;;14.30;7.47;;;14.00;99.90;;;;;;12522846;28;20063;-36
2021/09/02 00:55:59;;;;;;;17.58;7.43;;;14.00;99.90;;;;;;12516814;28;20041;-36
2021/09/02 01:02:01;;;;;;;15.23;7.47;;;13.90;99.90;;;;;;12516712;28;20147;-36
2021/09/02 01:08:04;;;;;;;14.98;7.90;;;13.80;99.90;;;;;;12517100;28;20538;-36
2021/09/02 01:14:06;;;;;;;16.90;7.82;;;13.90;99.90;;;;;;12513628;28;20183;-36
2021/09/02 01:20:10;;;;;;;13.65;8.15;;;13.80;99.90;;;;;;12516681;28;21168;-36
2021/09/02 01:26:18;;;;;;;11.75;7.15;;;13.70;99.90;;;;;;12525767;28;20480;-36
2021/09/02 01:32:25;;;;;;;16.85;7.55;;;13.70;99.90;;;;;;12526686;28;20048;-36
2021/09/02 01:38:26;;;;;;;20.00;9.35;;;13.60;99.90;;;;;;12526454;28;20596;-36
2021/09/02 01:44:29;;;;;;;15.90;9.23;;;13.60;99.90;;;;;;12522581;28;20475;-36
2021/09/02 01:50:33;;;;;;;17.45;8.68;;;13.60;99.90;;;;;;12527707;28;20056;-36
2021/09/02 01:56:35;;;;;;;14.30;8.35;;;13.60;99.90;;;;;;12520322;28;20238;-36
2021/09/02 02:02:38;;;;;;;14.43;8.05;;;13.60;99.90;;;;;;12521613;28;20065;-36
2021/09/02 02:08:40;;;;;;;13.77;8.25;;;13.60;99.90;;;;;;12522404;28;20132;-36
2021/09/02 02:14:42;;;;;;;20.20;12.30;;;13.50;99.90;;;;;;12525524;28;20091;-36
2021/09/02 02:20:44;;;;;;;19.30;9.75;;;13.50;99.90;;;;;;12523121;28;20412;-36
2021/09/02 02:26:46;;;;;;;17.88;10.50;;;13.40;99.90;;;;;;12515949;28;20044;-36
2021/09/02 02:32:49;;;;;;;16.55;9.15;;;13.40;99.90;;;;;;12519833;28;20053;-37
2021/09/02 02:38:51;;;;;;;15.85;9.57;;;13.30;99.90;;;;;;12520832;28;20044;-36
2021/09/02 02:44:53;;;;;;;16.63;10.00;;;13.40;99.90;;;;;;12516185;28;20044;-36
2021/09/02 02:50:59;;;;;;;19.75;10.18;;;13.30;99.90;;;;;;12516938;28;20061;-36
2021/09/02 02:57:04;;;;;;;15.02;9.30;;;13.40;99.90;;;;;;12520528;28;20465;-36
2021/09/02 03:03:06;;;;;;;19.20;10.77;;;13.40;99.90;;;;;;12519192;28;20057;-36
2021/09/02 03:09:09;;;;;;;18.95;10.00;;;13.30;99.90;;;;;;12516379;28;20053;-36
2021/09/02 03:15:16;;;;;;;16.30;9.55;;;13.30;99.90;;;;;;12517714;28;20045;-36
2021/09/02 03:21:21;;;;;;;17.73;11.00;;;13.40;99.90;;;;;;12483185;28;1096233;-36
2021/09/02 03:27:23;;;;;;;22.15;10.65;;;13.30;99.90;;;;;;12517193;28;20542;-38
2021/09/02 03:33:25;;;;;;;19.17;10.38;;;13.40;99.90;;;;;;12517140;28;20120;-36
2021/09/02 03:39:27;;;;;;;25.50;13.30;;;13.30;99.90;;;;;;12520336;28;20083;-36
2021/09/02 03:45:29;;;;;;;26.17;14.60;;;13.20;99.90;;;;;;12516804;28;20045;-37
2021/09/02 03:51:31;;;;;;;27.63;13.73;;;13.20;99.90;;;;;;12515789;28;20045;-36
2021/09/02 03:57:36;;;;;;;22.63;11.23;;;13.30;99.90;;;;;;12510800;28;20045;-36
2021/09/02 04:03:38;;;;;;;18.90;12.38;;;13.50;99.90;;;;;;12520917;28;20053;-36
2021/09/02 04:09:40;;;;;;;24.05;13.32;;;13.50;99.90;;;;;;12515283;28;20317;-36
2021/09/02 04:15:44;;;;;;;24.20;13.10;;;13.40;99.90;;;;;;12521974;28;20049;-36
2021/09/02 04:21:50;;;;;;;21.90;13.10;;;13.30;99.90;;;;;;12515397;28;20083;-36
2021/09/02 04:27:52;;;;;;;22.92;13.32;;;13.60;99.90;;;;;;12521163;28;20512;-36
2021/09/02 04:33:54;;;;;;;26.30;13.68;;;13.50;99.90;;;;;;12515489;28;20076;-36
2021/09/02 04:39:57;;;;;;;25.00;14.00;;;13.50;99.90;;;;;;12514116;28;20060;-36
2021/09/02 04:46:02;;;;;;;23.17;13.93;;;13.50;99.90;;;;;;12502564;28;20440;-36
2021/09/02 04:52:10;;;;;;;22.35;13.00;;;13.40;99.90;;;;;;12516496;28;20049;-36
2021/09/02 04:58:17;;;;;;;18.55;12.82;;;13.60;99.90;;;;;;12516600;28;20059;-36
2021/09/02 05:04:21;;;;;;;19.23;12.67;;;13.70;99.90;;;;;;12521502;28;20073;-36
2021/09/02 05:10:24;;;;;;;18.88;12.20;;;13.80;99.90;;;;;;12516334;28;20044;-36
2021/09/02 05:16:26;;;;;;;21.85;12.20;;;13.80;99.90;;;;;;12524086;28;20526;-37
2021/09/02 05:22:29;;;;;;;21.95;12.77;;;14.10;99.90;;;;;;12510698;28;20041;-39
2021/09/02 05:28:32;;;;;;;22.33;13.02;;;13.90;99.90;;;;;;12500819;28;20045;-38
2021/09/02 05:34:38;;;;;;;17.90;11.63;;;13.90;99.90;;;;;;12515577;28;20041;-36
2021/09/02 05:40:40;;;;;;;23.45;13.02;;;13.80;99.90;;;;;;12519740;28;20041;-37
2021/09/02 05:46:46;;;;;;;21.23;11.57;;;13.70;99.90;;;;;;12510751;28;20393;-37
2021/09/02 05:52:50;;;;;;;22.98;12.52;;;13.90;99.90;;;;;;12513164;28;20088;-36
2021/09/02 05:58:52;;;;;;;21.40;11.40;;;13.80;99.90;;;;;;12512744;28;20405;-37
2021/09/02 06:04:57;;;;;;;17.30;9.70;;;13.90;99.90;;;;;;12513668;28;20072;-36
2021/09/02 06:11:02;;;;;;;20.33;10.30;;;14.10;99.90;;;;;;12515566;28;20101;-37
2021/09/02 06:17:05;;;;;;;18.52;10.20;;;14.20;99.90;;;;;;12534634;28;20053;-36
2021/09/02 06:23:09;;;;;;;16.40;10.27;;;14.20;99.90;;;;;;12527901;28;20068;-36
2021/09/02 06:29:21;;;;;;;18.97;10.97;;;14.50;99.90;;;;;;12525749;28;20040;-37
2021/09/02 06:35:23;;;;;;;20.80;11.50;;;14.50;99.90;;;;;;12525831;28;20094;-37
2021/09/02 06:41:27;;;;;;;22.10;12.50;;;14.60;99.90;;;;;;12519302;28;20046;-36
2021/09/02 06:47:30;;;;;;;26.98;14.02;;;14.50;99.90;;;;;;12521857;28;20049;-38
2021/09/02 06:53:33;;;;;;;23.02;12.90;;;14.60;99.90;;;;;;12519501;28;20049;-36
2021/09/02 06:59:38;;;;;;;25.85;12.80;;;14.60;99.90;;;;;;12519470;28;20596;-36
2021/09/02 07:05:44;;;;;;;22.23;10.68;;;14.50;99.90;;;;;;12520380;28;20409;-37
2021/09/02 07:11:46;;;;;;;19.03;10.70;;;14.60;99.90;;;;;;12525475;28;20450;-36
2021/09/02 07:17:49;;;;;;;22.45;11.07;;;14.70;99.90;;;;;;12519632;28;20049;-37
2021/09/02 07:23:51;;;;;;;27.37;10.87;;;14.90;99.90;;;;;;12505351;28;20473;-36
2021/09/02 07:29:55;;;;;;;27.55;11.90;;;15.00;99.90;;;;;;12515708;28;20040;-38
2021/09/02 07:35:59;;;;;;;20.67;10.07;;;15.30;99.90;;;;;;12515628;28;20053;-37
2021/09/02 07:42:01;;;;;;;19.10;10.82;;;15.50;99.90;;;;;;12524871;28;20454;-37
2021/09/02 07:48:04;;;;;;;21.27;10.65;;;15.60;99.90;;;;;;12520929;28;20088;-37
2021/09/02 07:54:07;;;;;;;25.20;12.85;;;15.50;99.90;;;;;;12515427;28;20132;-37
2021/09/02 08:00:10;;;;;;;17.65;10.77;;;15.80;99.90;;;;;;12499452;28;20048;-37
2021/09/02 08:06:13;;;;;;;29.30;13.27;;;16.00;99.90;;;;;;12501248;28;20187;-37
2021/09/02 08:12:15;;;;;;;24.35;13.23;;;15.80;99.90;;;;;;12519382;28;20161;-37
2021/09/02 08:18:18;;;;;;;29.80;11.85;;;15.90;99.90;;;;;;12517995;28;20046;-37
2021/09/02 08:24:21;;;;;;;25.13;12.87;;;16.00;99.90;;;;;;12517071;28;20056;-37
2021/09/02 08:30:26;;;;;;;22.02;11.65;;;16.20;99.90;;;;;;12520694;28;20386;-37
2021/09/02 08:36:28;;;;;;;18.90;10.95;;;16.50;99.90;;;;;;12495930;28;20057;-37
2021/09/02 08:42:40;;;;;;;19.88;12.02;;;16.70;99.90;;;;;;12518928;28;20076;-38
2021/09/02 08:48:48;;;;;;;19.33;10.15;;;16.90;99.90;;;;;;12501074;28;20041;-37
2021/09/02 08:54:51;;;;;;;18.77;10.35;;;16.90;99.90;;;;;;12523586;28;20080;-37
2021/09/02 09:00:53;;;;;;;19.27;10.30;;;16.90;99.90;;;;;;12523408;28;20500;-37
2021/09/02 09:06:56;;;;;;;23.65;10.48;;;16.80;99.90;;;;;;12523001;28;20094;-37
2021/09/02 09:13:04;;;;;;;24.35;11.02;;;16.60;99.90;;;;;;12520541;28;20503;-37
2021/09/02 09:19:06;;;;;;;21.60;11.00;;;16.70;99.90;;;;;;12514334;28;20829;-37
2021/09/02 09:25:18;;;;;;;17.10;9.57;;;16.40;99.90;;;;;;12517554;28;20041;-37
2021/09/02 09:31:32;;;;;;;17.45;9.45;;;16.50;99.90;;;;;;12516405;28;20057;-37
2021/09/02 09:37:38;;;;;;;18.38;9.80;;;16.40;99.90;;;;;;12508257;28;20052;-37
2021/09/02 09:43:42;;;;;;;17.27;10.05;;;16.50;99.90;;;;;;12524200;28;20049;-37
2021/09/02 09:49:55;;;;;;;20.33;10.27;;;16.40;99.90;;;;;;12524307;28;20049;-37
2021/09/02 09:55:57;;;;;;;15.43;8.77;;;16.60;99.90;;;;;;12525565;28;20041;-37
2021/09/02 10:02:05;;;;;;;18.30;9.00;;;17.00;99.90;;;;;;12520060;28;20049;-39
2021/09/02 10:08:08;;;;;;;17.80;8.90;;;17.40;99.90;;;;;;12508231;28;20565;-37
2021/09/02 10:14:13;;;;;;;19.00;9.73;;;17.90;99.90;;;;;;12529094;28;20170;-37
2021/09/02 10:20:21;;;;;;;13.13;7.70;;;18.00;99.90;;;;;;12526459;28;20064;-37
2021/09/02 10:26:34;;;;;;;17.55;9.25;;;18.00;99.90;;;;;;12522601;28;20049;-37
2021/09/02 10:32:38;;;;;;;12.98;8.15;;;18.50;99.90;;;;;;12521345;28;20080;-37
2021/09/02 10:38:55;;;;;;;15.15;8.88;;;18.90;99.90;;;;;;12518742;28;20059;-37
2021/09/02 10:45:03;;;;;;;13.52;8.68;;;18.80;99.90;;;;;;12514108;28;20084;-37
2021/09/02 10:51:36;;;;;;;19.35;10.15;;;18.80;99.90;;;;;;12521632;28;20049;-38
2021/09/02 10:57:38;;;;;;;17.67;9.82;;;18.40;99.90;;;;;;12527589;28;20083;-37
2021/09/02 11:03:40;;;;;;;15.50;9.35;;;18.50;99.90;;;;;;12520200;28;20076;-37
2021/09/02 11:09:44;;;;;;;14.48;8.63;;;18.60;99.90;;;;;;12518589;28;20123;-37
2021/09/02 11:15:46;;;;;;;17.95;9.82;;;18.50;99.90;;;;;;12522181;28;20075;-37
2021/09/02 11:21:48;;;;;;;20.77;10.57;;;18.40;99.90;;;;;;12523970;28;20532;-37
2021/09/02 11:27:59;;;;;;;19.35;11.13;;;18.60;99.90;;;;;;12524512;28;20053;-37
2021/09/02 11:34:06;;;;;;;15.65;10.27;;;19.00;99.90;;;;;;12524609;28;20128;-37
2021/09/02 11:40:20;;;;;;;17.70;10.23;;;19.60;99.90;;;;;;12514209;28;20053;-37
2021/09/02 11:46:23;;;;;;;;;;;19.50;99.90;;;;;;12524655;28;20083;-38
2021/09/02 11:52:35;;;;;;;17.45;11.05;;;19.30;99.90;;;;;;12518857;28;19920;-37
2021/09/02 11:58:39;;;;;;;18.80;10.63;;;19.40;99.90;;;;;;12513412;28;20090;-37
2021/09/02 12:04:51;;;;;;;15.85;10.05;;;19.60;99.90;;;;;;12510520;28;20053;-38
2021/09/02 12:10:54;;;;;;;17.85;8.98;;;19.80;99.90;;;;;;12514830;28;20202;-37
2021/09/02 12:17:14;;;;;;;19.48;9.48;;;19.90;99.90;;;;;;12513374;28;20451;-38
2021/09/02 12:23:28;;;;;;;18.30;9.60;;;19.60;99.90;;;;;;12516753;28;20553;-37
2021/09/02 12:29:49;;;;;;;15.98;9.63;;;19.60;99.90;;;;;;12516094;28;20041;-38
2021/09/02 12:35:51;;;;;;;18.92;9.65;;;20.10;99.90;;;;;;12519241;28;20067;-38
2021/09/02 12:41:59;;;;;;;16.40;9.85;;;19.40;99.90;;;;;;12519714;28;20090;-37
2021/09/02 12:48:01;;;;;;;18.95;8.85;;;19.10;99.90;;;;;;12515916;28;20065;-37
2021/09/02 12:54:07;;;;;;;17.58;10.93;;;19.30;99.90;;;;;;12516359;28;20048;-38
2021/09/02 13:00:15;;;;;;;16.80;9.73;;;19.60;99.90;;;;;;12521364;28;20044;-38
2021/09/02 13:06:17;;;;;;;14.45;9.02;;;19.60;99.90;;;;;;12518480;28;20708;-37
2021/09/02 13:12:19;;;;;;;10.88;7.20;;;20.00;99.90;;;;;;12518245;28;20049;-37
2021/09/02 13:18:21;;;;;;;12.93;8.77;;;20.40;99.90;;;;;;12526110;28;20417;-39
2021/09/02 13:24:24;;;;;;;16.48;7.28;;;20.60;99.90;;;;;;12523377;28;20045;-37
2021/09/02 13:30:32;;;;;;;13.23;7.40;;;20.70;99.90;;;;;;12525133;28;20049;-37
2021/09/02 13:36:39;;;;;;;18.73;8.77;;;20.20;99.90;;;;;;12523989;28;20053;-37
2021/09/02 13:42:43;;;;;;;13.32;7.35;;;20.80;99.90;;;;;;12519143;28;20053;-37
2021/09/02 13:48:45;;;;;;;;;;;21.20;99.90;;;;;;12525770;28;20128;-38
2021/09/02 13:54:48;;;;;;;15.73;8.48;;;21.70;99.90;;;;;;12523931;28;20361;-40
2021/09/02 14:00:50;;;;;;;12.90;6.95;;;21.90;99.90;;;;;;12528814;28;20172;-38
2021/09/02 14:06:54;;;;;;;;;;;22.10;99.90;;;;;;12525206;28;20063;-37
2021/09/02 14:12:56;;;;;;;10.77;6.32;;;22.10;99.90;;;;;;12530634;28;20280;-38
2021/09/02 14:18:59;;;;;;;14.00;7.45;;;22.20;99.90;;;;;;12528487;28;20106;-38
2021/09/02 14:25:02;;;;;;;;;;;21.90;99.90;;;;;;12527439;28;20762;-37
2021/09/02 14:31:05;;;;;;;12.75;7.03;;;21.90;99.90;;;;;;12524378;28;20368;-40
2021/09/02 14:37:10;;;;;;;9.82;6.15;;;22.50;99.90;;;;;;12530929;28;20392;-37
2021/09/02 14:43:13;;;;;;;12.40;6.13;;;23.00;99.90;;;;;;12527093;28;20044;-37
2021/09/02 14:49:17;;;;;;;11.43;6.45;;;23.30;99.90;;;;;;12518469;28;20531;-38
2021/09/02 14:55:22;;;;;;;11.10;5.45;;;23.10;99.90;;;;;;12519394;28;20090;-38
2021/09/02 15:01:28;;;;;;;15.18;6.00;;;23.00;99.90;;;;;;12516410;28;20049;-38
2021/09/02 15:07:32;;;;;;;15.80;5.70;;;22.40;99.90;;;;;;12517212;28;20049;-38
2021/09/02 15:13:36;;;;;;;8.02;4.82;;;22.00;99.90;;;;;;12519121;28;20049;-37
2021/09/02 15:19:40;;;;;;;7.80;4.50;;;21.80;99.90;;;;;;12520079;28;20139;-38
2021/09/02 15:25:49;;;;;;;8.45;5.03;;;21.30;99.90;;;;;;12526614;28;20451;-37
2021/09/02 15:31:52;;;;;;;8.70;5.03;;;21.00;99.90;;;;;;12525001;28;20087;-39
2021/09/02 15:37:56;;;;;;;8.30;5.28;;;21.30;99.90;;;;;;12505350;28;20045;-38
2021/09/02 15:43:58;;;;;;;13.68;5.38;;;21.20;99.90;;;;;;12520833;28;20048;-38
2021/09/02 15:50:04;;;;;;;13.35;6.25;;;21.50;99.90;;;;;;12525180;28;20094;-38
2021/09/02 15:56:06;;;;;;;10.15;5.00;;;21.40;99.90;;;;;;12519699;28;20057;-37
2021/09/02 16:02:09;;;;;;;11.25;5.82;;;21.40;99.90;;;;;;12522676;28;20102;-38
2021/09/02 16:08:21;;;;;;;8.30;5.03;;;22.00;99.90;;;;;;12516951;28;20042;-41
2021/09/02 16:14:24;;;;;;;;;;;22.60;99.90;;;;;;12514377;28;20040;-39
2021/09/02 16:20:31;;;;;;;7.75;3.92;;;23.00;99.90;;;;;;12517870;28;19928;-37
2021/09/02 16:26:37;;;;;;;10.05;4.93;;;23.00;99.90;;;;;;12517290;28;20041;-37
2021/09/02 16:32:40;;;;;;;6.50;3.97;;;23.30;99.90;;;;;;12518244;28;20118;-38
2021/09/02 16:38:43;;;;;;;8.70;4.22;;;23.10;99.90;;;;;;12524372;28;20052;-40
2021/09/02 16:44:46;;;;;;;8.48;4.35;;;23.00;99.90;;;;;;12492435;28;20056;-39
2021/09/02 16:50:54;;;;;;;9.40;3.75;;;22.50;99.90;;;;;;12517102;28;20097;-37
2021/09/02 16:57:00;;;;;;;8.55;4.13;;;22.40;99.90;;;;;;12523206;28;20054;-38
2021/09/02 17:03:06;;;;;;;6.80;3.85;;;22.00;99.90;;;;;;12518180;28;20037;-38
2021/09/02 17:09:11;;;;;;;8.85;4.55;;;21.70;99.90;;;;;;12498380;28;20052;-38
2021/09/02 17:15:14;;;;;;;8.70;4.30;;;21.40;99.90;;;;;;12515826;28;20053;-38
2021/09/02 17:21:16;;;;;;;8.38;4.45;;;20.90;99.90;;;;;;12516253;28;20145;-38
2021/09/02 17:27:18;;;;;;;6.75;3.75;;;20.20;99.90;;;;;;12506478;28;20140;-37
2021/09/02 17:33:20;;;;;;;5.53;3.55;;;19.80;99.90;;;;;;12519976;28;20077;-37
2021/09/02 17:39:22;;;;;;;10.30;4.80;;;19.60;99.90;;;;;;12515593;28;20619;-37
2021/09/02 17:45:25;;;;;;;11.23;4.55;;;19.40;99.90;;;;;;12512479;28;20374;-37
2021/09/02 17:51:31;;;;;;;9.05;4.43;;;19.10;99.90;;;;;;12517254;28;20084;-37
2021/09/02 17:57:34;;;;;;;6.90;4.38;;;18.80;99.90;;;;;;12517383;28;20053;-37
2021/09/02 18:03:36;;;;;;;8.48;4.57;;;18.50;99.90;;;;;;12516467;28;20053;-37
2021/09/02 18:09:38;;;;;;;10.43;4.68;;;18.30;99.90;;;;;;12522216;28;20049;-37
2021/09/02 18:15:41;;;;;;;10.23;4.83;;;18.30;99.90;;;;;;12525478;28;20053;-37
2021/09/02 18:21:43;;;;;;;8.35;5.22;;;18.30;99.90;;;;;;12521630;28;20045;-37
2021/09/02 18:27:46;;;;;;;9.35;4.47;;;18.20;99.90;;;;;;12521569;28;20091;-37
2021/09/02 18:33:48;;;;;;;11.10;5.00;;;18.10;99.90;;;;;;12516227;28;20080;-38
2021/09/02 18:39:50;;;;;;;9.98;5.28;;;17.90;99.90;;;;;;12517145;28;20867;-38
2021/09/02 18:45:56;;;;;;;10.27;5.50;;;17.80;99.90;;;;;;12501983;28;20160;-37
2021/09/02 18:52:00;;;;;;;7.05;4.70;;;17.60;99.90;;;;;;12511831;28;20454;-37
2021/09/02 18:58:03;;;;;;;13.17;5.10;;;17.50;99.90;;;;;;12519213;28;20139;-38
2021/09/02 19:04:09;;;;;;;12.52;5.22;;;17.40;99.90;;;;;;12518343;28;20520;-37
2021/09/02 19:10:11;;;;;;;10.30;5.53;;;17.20;99.90;;;;;;12515724;28;20408;-37
2021/09/02 19:16:18;;;;;;;10.90;6.20;;;17.10;99.90;;;;;;12520744;28;20068;-37
2021/09/02 19:22:20;;;;;;;10.63;6.47;;;16.90;99.90;;;;;;12524230;28;20106;-37
2021/09/02 19:28:23;;;;;;;12.75;6.32;;;16.90;99.90;;;;;;12521149;28;20052;-38
2021/09/02 19:34:30;;;;;;;11.20;6.90;;;16.80;99.90;;;;;;12512056;28;20098;-37
2021/09/02 19:40:38;;;;;;;11.95;7.03;;;16.80;99.90;;;;;;12513118;28;20044;-37
2021/09/02 19:46:41;;;;;;;12.90;7.50;;;16.50;99.90;;;;;;12517032;28;20081;-37
2021/09/02 19:52:44;;;;;;;11.63;7.47;;;16.40;99.90;;;;;;12517701;28;20149;-37
2021/09/02 19:58:47;;;;;;;14.65;7.57;;;16.20;99.90;;;;;;12507355;28;20049;-37
2021/09/02 20:04:55;;;;;;;10.90;8.18;;;16.20;99.90;;;;;;12508780;28;20132;-37
2021/09/02 20:10:59;;;;;;;12.20;7.50;;;16.10;99.90;;;;;;12504694;28;20053;-37
2021/09/02 20:17:11;;;;;;;11.68;6.85;;;16.10;99.90;;;;;;12512936;28;20045;-38
2021/09/02 20:23:13;;;;;;;13.68;8.02;;;16.10;99.90;;;;;;12483833;28;20049;-38
2021/09/02 20:29:16;;;;;;;12.63;7.70;;;16.10;99.90;;;;;;12515766;28;20084;-37
2021/09/02 20:35:22;;;;;;;12.70;7.80;;;15.90;99.90;;;;;;12503948;28;20045;-37
2021/09/02 20:41:33;;;;;;;14.10;8.00;;;15.90;99.90;;;;;;12505308;28;20037;-37
2021/09/02 20:47:41;;;;;;;15.73;8.55;;;15.90;99.90;;;;;;12500616;28;20128;-37
2021/09/02 20:53:45;;;;;;;14.73;8.18;;;15.90;99.90;;;;;;12496961;28;20056;-37
2021/09/02 20:59:48;;;;;;;11.20;7.85;;;15.90;99.90;;;;;;12511526;28;20101;-37
2021/09/02 21:05:51;;;;;;;12.80;7.60;;;15.90;99.90;;;;;;12512909;28;20389;-37
2021/09/02 21:11:54;;;;;;;15.23;7.97;;;16.10;99.90;;;;;;12490796;28;20057;-37
2021/09/02 21:17:56;;;;;;;14.38;8.27;;;16.10;99.90;;;;;;12515491;28;20131;-37
2021/09/02 21:23:58;;;;;;;13.82;8.07;;;16.10;99.90;;;;;;12514995;28;20068;-37
2021/09/02 21:30:03;;;;;;;15.77;7.93;;;16.00;99.90;;;;;;12506316;28;20132;-36
2021/09/02 21:36:11;;;;;;;10.55;7.70;;;16.00;99.90;;;;;;12510949;28;20135;-38
2021/09/02 21:42:16;;;;;;;13.77;8.25;;;16.00;99.90;;;;;;12518263;28;20139;-37
2021/09/02 21:48:20;;;;;;;12.10;8.10;;;15.90;99.90;;;;;;12518319;28;20053;-36
2021/09/02 21:54:27;;;;;;;12.32;7.95;;;15.80;99.90;;;;;;12526218;28;20049;-37
2021/09/02 22:00:31;;;;;;;13.35;7.97;;;15.70;99.90;;;;;;12522982;28;20045;-36
2021/09/02 22:06:37;;;;;;;12.95;7.20;;;15.70;99.90;;;;;;12523945;28;20060;-38
2021/09/02 22:12:40;;;;;;;12.02;7.68;;;15.70;99.90;;;;;;12526390;28;20040;-36
2021/09/02 22:18:56;;;;;;;14.93;7.87;;;15.50;99.90;;;;;;12522274;28;20087;-37
2021/09/02 22:25:02;;;;;;;13.15;7.55;;;15.50;99.90;;;;;;12508314;28;20048;-36
2021/09/02 22:31:11;;;;;;;13.57;8.00;;;15.40;99.90;;;;;;12520297;28;20679;-36
2021/09/02 22:37:16;;;;;;;10.68;6.75;;;15.30;99.90;;;;;;12518276;28;20808;-37
2021/09/02 22:43:18;;;;;;;;;;;15.20;99.90;;;;;;12514498;28;20049;-36
2021/09/02 22:49:22;;;;;;;11.60;7.03;;;15.30;99.90;;;;;;12513116;28;20368;-36
2021/09/02 22:55:25;;;;;;;;;;;15.20;99.90;;;;;;12519617;28;20049;-36
2021/09/02 23:01:28;;;;;;;14.73;7.95;;;15.20;99.90;;;;;;12518208;28;20411;-36
2021/09/02 23:07:52;;;;;;;14.43;8.67;;;15.20;99.90;;;;;;12515844;28;20049;-37
2021/09/02 23:13:56;;;;;;;14.13;9.03;;;15.10;99.90;;;;;;12512060;28;20053;-37
2021/09/02 23:20:01;;;;;;;11.47;7.63;;;15.00;99.90;;;;;;12519946;28;20413;-37
2021/09/02 23:26:06;;;;;;;16.70;8.20;;;14.90;99.90;;;;;;12516280;28;20076;-36
2021/09/02 23:32:08;;;;;;;14.00;8.20;;;14.80;99.90;;;;;;12510898;28;20054;-36
2021/09/02 23:38:10;;;;;;;16.25;8.90;;;14.70;99.90;;;;;;12515249;28;20093;-36
2021/09/02 23:44:17;;;;;;;14.57;8.63;;;14.80;99.90;;;;;;12506063;28;20054;-36
2021/09/02 23:50:19;;;;;;;15.82;8.38;;;14.80;99.90;;;;;;12509774;28;20550;-38
2021/09/02 23:56:21;;;;;;;12.85;8.02;;;14.60;99.90;;;;;;12513995;28;20075;-36
